Time;durP1;ratioP1;P1;durP2;ratioP2;P2;SDS_P1;SDS_P2;PMS_P1;PMS_P2;Temp;Humidity;BMP_temperature;BMP_pressure;BME280_temperature;BME280_humidity;BME280_pressure;Samples;Min_cycle;Max_cycle;Signal;HPM_P1;HPM_P2
2021/11/14 00:01:09;;;;;;;31.67;21.45;;;;;;;;;;5015524;28;20194;-72
2021/11/14 00:03:35;;;;;;;28.80;20.08;;;;;;;;;;5017600;28;20210;-74
2021/11/14 00:06:00;;;;;;;30.38;21.42;;;;;;;;;;5011972;28;20187;-73
2021/11/14 00:08:26;;;;;;;29.73;20.88;;;;;;;;;;5013705;28;20285;-71
2021/11/14 00:10:53;;;;;;;29.85;20.70;;;;;;;;;;5011532;28;20340;-72
2021/11/14 00:13:19;;;;;;;30.35;20.65;;;;;;;;;;4993243;28;20184;-74
2021/11/14 00:15:44;;;;;;;31.25;21.73;;;;;;;;;;5008450;28;20194;-72
2021/11/14 00:18:09;;;;;;;26.83;21.65;;;;;;;;;;5008514;28;20214;-72
2021/11/14 00:20:35;;;;;;;29.80;19.03;;;;;;;;;;5011007;28;21113;-72
2021/11/14 00:23:00;;;;;;;29.55;20.98;;;;;;;;;;5006449;28;20239;-72
2021/11/14 00:25:26;;;;;;;28.42;21.08;;;;;;;;;;5010121;28;20205;-72
2021/11/14 00:27:51;;;;;;;27.77;19.30;;;;;;;;;;5007929;28;20186;-74
2021/11/14 00:30:17;;;;;;;28.55;20.73;;;;;;;;;;5007850;28;20194;-73
2021/11/14 00:32:43;;;;;;;27.07;20.07;;;;;;;;;;5011299;28;20589;-72
2021/11/14 00:35:09;;;;;;;29.58;20.63;;;;;;;;;;5006116;28;20187;-74
2021/11/14 00:37:36;;;;;;;29.58;20.33;;;;;;;;;;5008832;28;20695;-73
2021/11/14 00:40:03;;;;;;;31.08;21.23;;;;;;;;;;4983647;28;20190;-71
2021/11/14 00:42:29;;;;;;;28.75;21.33;;;;;;;;;;5005782;28;20214;-73
2021/11/14 00:44:54;;;;;;;31.48;21.98;;;;;;;;;;5005127;28;20197;-72
2021/11/14 00:47:19;;;;;;;29.80;21.70;;;;;;;;;;5019646;28;20181;-71
2021/11/14 00:49:46;;;;;;;30.88;20.73;;;;;;;;;;5032155;28;20598;-71
2021/11/14 00:52:11;;;;;;;30.87;20.47;;;;;;;;;;5029865;28;22114;-72
2021/11/14 00:54:36;;;;;;;32.00;21.70;;;;;;;;;;5029272;28;20240;-71
2021/11/14 00:57:01;;;;;;;28.73;21.30;;;;;;;;;;5030320;28;20194;-73
2021/11/14 00:59:27;;;;;;;31.02;21.73;;;;;;;;;;5018499;28;20182;-71
2021/11/14 01:01:52;;;;;;;31.13;21.05;;;;;;;;;;5022391;28;20202;-72
2021/11/14 01:04:17;;;;;;;32.70;22.40;;;;;;;;;;5021940;28;20189;-71
2021/11/14 01:06:42;;;;;;;32.87;22.63;;;;;;;;;;5025344;28;20272;-71
2021/11/14 01:09:08;;;;;;;37.83;24.67;;;;;;;;;;5028799;28;20257;-71
2021/11/14 01:11:33;;;;;;;30.30;21.53;;;;;;;;;;5029924;28;20202;-71
2021/11/14 01:13:59;;;;;;;29.77;20.57;;;;;;;;;;5028683;28;20166;-71
2021/11/14 01:16:24;;;;;;;32.30;22.33;;;;;;;;;;5015632;28;20182;-71
2021/11/14 01:18:49;;;;;;;33.67;22.53;;;;;;;;;;5007291;28;20216;-71
2021/11/14 01:21:18;;;;;;;32.30;21.67;;;;;;;;;;5009830;28;20898;-71
2021/11/14 01:23:44;;;;;;;30.17;21.33;;;;;;;;;;5006806;28;20189;-73
2021/11/14 01:26:09;;;;;;;34.50;22.10;;;;;;;;;;5010927;28;21833;-71
2021/11/14 01:28:35;;;;;;;34.33;21.43;;;;;;;;;;5008681;28;20265;-72
2021/11/14 01:31:00;;;;;;;34.53;23.60;;;;;;;;;;5002850;28;20302;-71
2021/11/14 01:33:26;;;;;;;29.80;21.23;;;;;;;;;;5003748;28;20660;-72
2021/11/14 01:35:53;;;;;;;28.27;20.13;;;;;;;;;;5007396;28;20685;-73
2021/11/14 01:38:19;;;;;;;29.80;20.90;;;;;;;;;;5006496;28;20209;-72
2021/11/14 01:40:45;;;;;;;33.87;22.13;;;;;;;;;;5006279;28;20209;-71
2021/11/14 01:43:12;;;;;;;37.90;24.37;;;;;;;;;;5004519;28;20190;-71
2021/11/14 01:45:38;;;;;;;40.17;23.73;;;;;;;;;;5007166;28;20578;-73
2021/11/14 01:48:04;;;;;;;41.63;25.87;;;;;;;;;;5006251;28;20269;-73
2021/11/14 01:50:29;;;;;;;34.20;23.73;;;;;;;;;;5005709;28;20569;-73
2021/11/14 01:52:54;;;;;;;35.03;23.80;;;;;;;;;;5007034;28;20174;-71
2021/11/14 01:55:22;;;;;;;34.63;24.27;;;;;;;;;;5011222;28;20186;-71
2021/11/14 01:57:47;;;;;;;35.07;23.37;;;;;;;;;;5031673;28;20213;-71
2021/11/14 02:00:16;;;;;;;33.73;21.87;;;;;;;;;;5036380;28;20177;-72
2021/11/14 02:02:41;;;;;;;38.33;23.50;;;;;;;;;;5028504;28;21084;-71
2021/11/14 02:05:07;;;;;;;33.77;22.70;;;;;;;;;;5008874;28;20182;-74
2021/11/14 02:07:33;;;;;;;34.63;20.37;;;;;;;;;;4988283;28;20183;-71
2021/11/14 02:09:58;;;;;;;36.23;20.43;;;;;;;;;;5006018;28;20196;-71
2021/11/14 02:12:23;;;;;;;34.80;21.00;;;;;;;;;;5005577;28;20233;-71
2021/11/14 02:14:49;;;;;;;31.20;19.97;;;;;;;;;;5006671;28;20189;-73
2021/11/14 02:17:14;;;;;;;32.43;20.93;;;;;;;;;;5007994;28;20198;-74
2021/11/14 02:19:39;;;;;;;34.03;21.20;;;;;;;;;;5009746;28;20178;-72
2021/11/14 02:22:05;;;;;;;30.93;18.53;;;;;;;;;;5014110;28;20208;-74
2021/11/14 02:24:30;;;;;;;37.50;20.53;;;;;;;;;;5011395;28;20193;-72
2021/11/14 02:26:55;;;;;;;30.37;19.60;;;;;;;;;;5013448;28;20186;-74
2021/11/14 02:29:20;;;;;;;32.73;20.00;;;;;;;;;;5011075;28;20188;-73
2021/11/14 02:31:46;;;;;;;30.98;19.83;;;;;;;;;;5009597;28;20199;-72
2021/11/14 02:34:11;;;;;;;38.53;20.70;;;;;;;;;;5010304;28;20660;-71
2021/11/14 02:36:37;;;;;;;32.03;20.43;;;;;;;;;;5009099;28;20187;-72
2021/11/14 02:39:03;;;;;;;31.80;20.63;;;;;;;;;;5009591;28;20912;-71
2021/11/14 02:41:28;;;;;;;30.43;20.80;;;;;;;;;;5041117;23;20312;-77
2021/11/14 02:43:54;;;;;;;31.50;21.10;;;;;;;;;;5029512;28;20180;-77
2021/11/14 02:46:19;;;;;;;31.70;20.67;;;;;;;;;;5029474;28;20293;-76
2021/11/14 02:48:45;;;;;;;33.67;21.33;;;;;;;;;;5030863;28;20181;-76
2021/11/14 02:51:13;;;;;;;27.77;19.10;;;;;;;;;;5029595;28;20201;-76
2021/11/14 02:53:39;;;;;;;30.23;21.23;;;;;;;;;;5032356;28;20178;-78
2021/11/14 02:56:05;;;;;;;33.20;20.87;;;;;;;;;;5031885;28;20792;-77
2021/11/14 02:58:31;;;;;;;35.90;22.53;;;;;;;;;;5031927;28;20221;-76
2021/11/14 03:01:03;;;;;;;34.40;22.33;;;;;;;;;;5031871;28;20194;-76
2021/11/14 03:03:29;;;;;;;34.77;22.13;;;;;;;;;;5029940;28;20355;-77
2021/11/14 03:05:55;;;;;;;33.50;21.17;;;;;;;;;;5028874;28;20235;-76
2021/11/14 03:08:20;;;;;;;33.23;21.23;;;;;;;;;;5026921;28;20181;-77
2021/11/14 03:10:46;;;;;;;29.90;21.27;;;;;;;;;;5030003;28;20190;-77
2021/11/14 03:13:13;;;;;;;28.67;19.63;;;;;;;;;;5029576;28;20192;-76
2021/11/14 03:15:43;;;;;;;42.47;22.83;;;;;;;;;;5029809;28;20182;-76
2021/11/14 03:18:08;;;;;;;32.77;20.40;;;;;;;;;;5031635;28;20211;-75
2021/11/14 03:20:35;;;;;;;29.43;19.80;;;;;;;;;;5035341;28;20691;-75
2021/11/14 03:23:00;;;;;;;28.17;19.93;;;;;;;;;;5028789;28;20625;-77
2021/11/14 03:25:27;;;;;;;29.97;20.50;;;;;;;;;;5029759;28;20244;-75
2021/11/14 03:27:52;;;;;;;30.93;21.23;;;;;;;;;;5026735;28;20185;-75
2021/11/14 03:30:19;;;;;;;30.73;21.20;;;;;;;;;;5026947;28;20712;-76
2021/11/14 03:32:45;;;;;;;27.90;20.27;;;;;;;;;;5027033;28;20302;-75
2021/11/14 03:35:10;;;;;;;31.80;22.37;;;;;;;;;;5030129;28;20181;-75
2021/11/14 03:37:35;;;;;;;28.23;19.63;;;;;;;;;;5027174;28;20695;-75
2021/11/14 03:40:02;;;;;;;30.33;20.02;;;;;;;;;;5027359;28;20186;-76
2021/11/14 03:42:27;;;;;;;29.70;19.27;;;;;;;;;;5028913;28;21750;-76
2021/11/14 03:44:53;;;;;;;30.33;19.90;;;;;;;;;;5028026;28;20178;-76
2021/11/14 03:47:18;;;;;;;31.43;20.67;;;;;;;;;;5027161;28;20226;-76
2021/11/14 03:49:43;;;;;;;33.77;22.57;;;;;;;;;;5028202;28;20211;-76
2021/11/14 03:52:09;;;;;;;28.70;20.90;;;;;;;;;;5027593;28;20205;-75
2021/11/14 03:54:34;;;;;;;32.03;20.07;;;;;;;;;;5026675;28;20408;-76
2021/11/14 03:56:59;;;;;;;29.20;19.07;;;;;;;;;;5032832;28;20209;-75
2021/11/14 03:59:25;;;;;;;25.77;19.63;;;;;;;;;;5031466;28;20186;-76
2021/11/14 04:01:50;;;;;;;29.13;21.10;;;;;;;;;;5026728;28;20296;-75
2021/11/14 04:04:15;;;;;;;31.07;20.97;;;;;;;;;;5026298;28;20180;-75
2021/11/14 04:06:40;;;;;;;35.33;21.13;;;;;;;;;;5028601;28;20202;-75
2021/11/14 04:09:05;;;;;;;30.13;20.57;;;;;;;;;;5027356;28;20535;-76
2021/11/14 04:11:31;;;;;;;30.93;20.20;;;;;;;;;;5026771;28;20204;-75
2021/11/14 04:13:56;;;;;;;30.77;20.42;;;;;;;;;;5029663;28;20682;-76
2021/11/14 04:16:21;;;;;;;30.67;21.07;;;;;;;;;;5028214;28;20185;-75
2021/11/14 04:18:47;;;;;;;28.53;19.57;;;;;;;;;;5029806;28;20197;-75
2021/11/14 04:21:12;;;;;;;34.00;20.50;;;;;;;;;;5033872;28;20689;-75
2021/11/14 04:23:38;;;;;;;43.50;22.60;;;;;;;;;;5030143;28;20186;-76
2021/11/14 04:26:04;;;;;;;29.60;18.67;;;;;;;;;;5035918;28;20197;-75
2021/11/14 04:28:29;;;;;;;28.47;19.70;;;;;;;;;;5029060;28;20204;-76
2021/11/14 04:30:54;;;;;;;27.17;18.53;;;;;;;;;;5027202;28;20667;-75
2021/11/14 04:33:20;;;;;;;29.93;18.67;;;;;;;;;;5026301;28;20570;-75
2021/11/14 04:35:46;;;;;;;29.60;19.07;;;;;;;;;;5028344;28;20178;-75
2021/11/14 04:38:11;;;;;;;28.13;19.20;;;;;;;;;;5026862;28;20287;-78
2021/11/14 04:40:37;;;;;;;32.43;19.27;;;;;;;;;;5029044;28;20640;-76
2021/11/14 04:43:03;;;;;;;30.97;19.10;;;;;;;;;;5028102;28;20300;-76
2021/11/14 04:45:28;;;;;;;32.73;18.37;;;;;;;;;;5025951;28;20840;-77
2021/11/14 04:47:54;;;;;;;31.53;20.83;;;;;;;;;;5027147;28;21616;-77
2021/11/14 04:50:19;;;;;;;32.67;19.90;;;;;;;;;;5026510;28;20189;-78
2021/11/14 04:52:45;;;;;;;29.90;19.63;;;;;;;;;;5027726;28;20221;-78
2021/11/14 04:55:11;;;;;;;31.40;19.63;;;;;;;;;;5025911;28;20647;-78
2021/11/14 04:57:36;;;;;;;34.83;19.50;;;;;;;;;;5037410;28;20731;-77
2021/11/14 05:00:04;;;;;;;27.80;18.53;;;;;;;;;;5023645;28;20683;-77
2021/11/14 05:02:29;;;;;;;32.10;19.30;;;;;;;;;;5026516;28;20237;-76
2021/11/14 05:04:55;;;;;;;32.20;21.00;;;;;;;;;;5029311;28;20178;-76
2021/11/14 05:07:20;;;;;;;34.97;20.03;;;;;;;;;;5028172;28;22408;-77
2021/11/14 05:09:45;;;;;;;31.30;19.57;;;;;;;;;;5025008;28;20360;-76
2021/11/14 05:12:10;;;;;;;35.57;19.37;;;;;;;;;;5026698;28;20201;-76
2021/11/14 05:14:35;;;;;;;32.77;19.53;;;;;;;;;;5025946;28;20255;-76
2021/11/14 05:17:01;;;;;;;32.90;20.20;;;;;;;;;;5028629;28;20186;-76
2021/11/14 05:19:26;;;;;;;31.50;20.17;;;;;;;;;;5027551;28;20236;-77
2021/11/14 05:21:51;;;;;;;34.63;20.93;;;;;;;;;;5027093;28;20224;-78
2021/11/14 05:24:16;;;;;;;29.73;19.23;;;;;;;;;;5026558;28;20654;-74
2021/11/14 05:26:42;;;;;;;30.23;19.57;;;;;;;;;;5026628;28;20182;-76
2021/11/14 05:29:07;;;;;;;29.53;20.37;;;;;;;;;;5025310;28;20182;-76
2021/11/14 05:31:32;;;;;;;36.23;21.30;;;;;;;;;;5025789;28;20209;-76
2021/11/14 05:33:57;;;;;;;35.53;22.17;;;;;;;;;;5027014;28;20190;-77
2021/11/14 05:36:23;;;;;;;35.10;21.23;;;;;;;;;;5027092;28;20277;-77
2021/11/14 05:38:49;;;;;;;32.63;20.67;;;;;;;;;;5024342;28;20591;-77
2021/11/14 05:41:14;;;;;;;37.37;21.80;;;;;;;;;;5026498;28;20613;-77
2021/11/14 05:43:39;;;;;;;39.07;22.90;;;;;;;;;;5025317;28;20239;-77
2021/11/14 05:46:04;;;;;;;40.33;22.77;;;;;;;;;;5025081;28;20178;-77
2021/11/14 05:48:29;;;;;;;38.93;22.27;;;;;;;;;;5027992;28;20186;-77
2021/11/14 05:50:55;;;;;;;31.60;21.13;;;;;;;;;;5027563;28;20194;-77
2021/11/14 05:53:20;;;;;;;34.90;20.97;;;;;;;;;;5028888;28;20196;-76
2021/11/14 05:55:46;;;;;;;37.53;23.20;;;;;;;;;;5027052;28;22151;-77
2021/11/14 05:58:15;;;;;;;37.87;23.23;;;;;;;;;;5029642;28;20210;-77
2021/11/14 06:01:06;;;;;;;37.13;22.67;;;;;;;;;;5040661;28;20182;-76
2021/11/14 06:05:56;;;;;;;39.33;22.57;;;;;;;;;;5024897;28;20194;-75
2021/11/14 06:08:22;;;;;;;39.00;24.97;;;;;;;;;;5028012;28;21313;-76
2021/11/14 06:10:50;;;;;;;36.93;23.10;;;;;;;;;;5027032;28;22061;-76
2021/11/14 06:13:18;;;;;;;38.60;24.47;;;;;;;;;;5028009;28;20357;-77
2021/11/14 06:15:43;;;;;;;40.73;22.53;;;;;;;;;;5026473;28;20867;-77
2021/11/14 06:18:08;;;;;;;42.07;23.33;;;;;;;;;;5026352;28;20240;-77
2021/11/14 06:20:33;;;;;;;38.50;23.03;;;;;;;;;;5027831;28;20817;-76
2021/11/14 06:22:59;;;;;;;43.97;25.63;;;;;;;;;;5028153;28;20178;-77
2021/11/14 06:25:24;;;;;;;42.50;24.67;;;;;;;;;;5026995;28;20273;-77
2021/11/14 06:27:49;;;;;;;44.23;24.27;;;;;;;;;;5028948;28;20185;-76
2021/11/14 06:30:15;;;;;;;40.83;24.73;;;;;;;;;;5030584;28;20188;-75
2021/11/14 06:32:40;;;;;;;42.87;24.50;;;;;;;;;;5026390;28;20671;-76
2021/11/14 06:35:06;;;;;;;46.07;25.03;;;;;;;;;;5025026;28;20186;-77
2021/11/14 06:37:31;;;;;;;48.77;27.00;;;;;;;;;;5028361;28;20210;-76
2021/11/14 06:39:56;;;;;;;44.73;25.83;;;;;;;;;;5026165;28;20323;-76
2021/11/14 06:42:21;;;;;;;53.07;27.03;;;;;;;;;;5026409;28;20213;-76
2021/11/14 06:44:46;;;;;;;50.70;27.13;;;;;;;;;;5026188;28;20181;-77
2021/11/14 06:47:13;;;;;;;44.73;27.10;;;;;;;;;;5023971;28;20194;-75
2021/11/14 06:49:38;;;;;;;45.40;24.80;;;;;;;;;;5026383;28;20196;-76
2021/11/14 06:52:03;;;;;;;45.60;26.13;;;;;;;;;;5028206;28;20194;-77
2021/11/14 06:54:28;;;;;;;44.37;24.77;;;;;;;;;;5027776;28;20179;-76
2021/11/14 06:56:54;;;;;;;43.90;25.27;;;;;;;;;;5031775;28;20189;-75
2021/11/14 06:59:20;;;;;;;45.87;26.60;;;;;;;;;;5031102;28;20545;-76
2021/11/14 07:01:46;;;;;;;50.80;27.00;;;;;;;;;;5025816;28;20208;-76
2021/11/14 07:04:11;;;;;;;39.67;23.37;;;;;;;;;;5029760;28;20181;-76
2021/11/14 07:06:37;;;;;;;44.63;23.83;;;;;;;;;;5027038;28;20558;-77
2021/11/14 07:09:03;;;;;;;49.90;25.20;;;;;;;;;;5029167;28;20189;-76
2021/11/14 07:11:28;;;;;;;45.93;25.80;;;;;;;;;;5029531;28;20345;-76
2021/11/14 07:13:55;;;;;;;45.93;24.27;;;;;;;;;;5028759;28;20567;-76
2021/11/14 07:16:20;;;;;;;47.70;26.07;;;;;;;;;;5027671;28;21227;-76
2021/11/14 07:18:45;;;;;;;50.27;26.20;;;;;;;;;;5034563;28;20730;-78
2021/11/14 07:21:11;;;;;;;49.20;25.83;;;;;;;;;;5047146;28;20232;-76
2021/11/14 07:23:36;;;;;;;43.47;24.23;;;;;;;;;;5048141;28;20209;-76
2021/11/14 07:26:01;;;;;;;49.53;26.60;;;;;;;;;;5051843;28;20227;-76
2021/11/14 07:28:26;;;;;;;51.07;25.57;;;;;;;;;;5050714;28;20182;-76
2021/11/14 07:30:51;;;;;;;50.80;27.57;;;;;;;;;;5050865;28;20197;-77
2021/11/14 07:33:17;;;;;;;54.47;27.87;;;;;;;;;;5049052;28;20190;-76
2021/11/14 07:35:42;;;;;;;51.17;26.33;;;;;;;;;;5050563;28;20220;-76
2021/11/14 07:38:07;;;;;;;56.23;27.67;;;;;;;;;;5050440;28;20197;-75
2021/11/14 07:40:32;;;;;;;47.87;25.17;;;;;;;;;;5049316;28;20174;-76
2021/11/14 07:42:58;;;;;;;48.57;24.93;;;;;;;;;;5042401;28;20217;-76
2021/11/14 07:45:24;;;;;;;50.17;25.67;;;;;;;;;;5047933;28;20654;-76
2021/11/14 07:47:50;;;;;;;49.23;25.93;;;;;;;;;;5050666;28;20261;-76
2021/11/14 07:50:16;;;;;;;57.50;26.93;;;;;;;;;;5048956;28;20561;-76
2021/11/14 07:52:42;;;;;;;55.07;25.77;;;;;;;;;;5051060;28;20198;-76
2021/11/14 07:55:08;;;;;;;56.40;26.40;;;;;;;;;;5050293;28;20193;-76
2021/11/14 07:57:34;;;;;;;55.23;27.70;;;;;;;;;;5051409;28;20201;-76
2021/11/14 07:59:59;;;;;;;57.23;27.60;;;;;;;;;;5049416;28;20635;-77
2021/11/14 08:02:24;;;;;;;53.97;26.77;;;;;;;;;;5044597;28;20300;-76
2021/11/14 08:04:49;;;;;;;56.00;27.20;;;;;;;;;;5051526;28;20181;-76
2021/11/14 08:07:14;;;;;;;53.93;26.33;;;;;;;;;;5047712;28;20185;-76
2021/11/14 08:09:39;;;;;;;48.90;26.97;;;;;;;;;;5049414;28;20252;-76
2021/11/14 08:12:05;;;;;;;45.50;24.43;;;;;;;;;;5046301;28;20201;-76
2021/11/14 08:14:30;;;;;;;49.00;25.80;;;;;;;;;;5050314;28;20177;-76
2021/11/14 08:16:56;;;;;;;50.77;26.53;;;;;;;;;;5051381;28;20179;-77
2021/11/14 08:19:21;;;;;;;45.43;24.40;;;;;;;;;;5040634;28;20263;-78
2021/11/14 08:21:46;;;;;;;47.43;26.97;;;;;;;;;;5047645;28;20700;-76
2021/11/14 08:24:11;;;;;;;45.33;25.50;;;;;;;;;;5026673;28;20182;-77
2021/11/14 08:26:36;;;;;;;49.57;25.07;;;;;;;;;;5027349;28;20182;-77
2021/11/14 08:29:02;;;;;;;51.70;27.47;;;;;;;;;;5023709;28;20185;-77
2021/11/14 08:31:27;;;;;;;49.10;24.87;;;;;;;;;;5028066;28;20210;-77
2021/11/14 08:33:52;;;;;;;48.23;24.87;;;;;;;;;;5028834;28;20189;-78
2021/11/14 08:36:17;;;;;;;45.53;25.10;;;;;;;;;;5030629;28;20614;-77
2021/11/14 08:38:44;;;;;;;44.42;24.95;;;;;;;;;;5030025;28;20210;-78
2021/11/14 08:41:10;;;;;;;41.73;24.40;;;;;;;;;;5040407;22;20182;-69
2021/11/14 08:43:37;;;;;;;42.67;24.50;;;;;;;;;;4996330;28;20209;-69
2021/11/14 08:46:04;;;;;;;41.27;23.67;;;;;;;;;;5012003;28;20211;-69
2021/11/14 08:48:29;;;;;;;43.40;23.07;;;;;;;;;;5009021;28;20194;-71
2021/11/14 08:50:55;;;;;;;41.90;23.37;;;;;;;;;;5008930;28;20691;-71
2021/11/14 08:53:21;;;;;;;39.30;22.97;;;;;;;;;;5010273;28;20190;-69
2021/11/14 08:55:46;;;;;;;41.43;24.00;;;;;;;;;;5010166;28;20550;-70
2021/11/14 08:58:11;;;;;;;38.30;23.10;;;;;;;;;;5017632;28;20248;-69
2021/11/14 09:00:36;;;;;;;35.83;20.67;;;;;;;;;;5007201;28;20269;-69
2021/11/14 09:03:02;;;;;;;42.37;23.33;;;;;;;;;;5008289;28;20214;-68
2021/11/14 09:05:28;;;;;;;42.00;23.63;;;;;;;;;;4991537;28;20626;-70
2021/11/14 09:07:54;;;;;;;34.13;21.53;;;;;;;;;;5008961;28;21791;-69
2021/11/14 09:10:20;;;;;;;40.10;22.00;;;;;;;;;;5007535;28;20652;-69
2021/11/14 09:12:45;;;;;;;37.87;22.33;;;;;;;;;;5009915;28;20647;-70
2021/11/14 09:15:11;;;;;;;33.10;21.13;;;;;;;;;;4989961;28;20195;-70
2021/11/14 09:17:37;;;;;;;35.90;22.27;;;;;;;;;;5010822;28;20282;-69
2021/11/14 09:20:03;;;;;;;34.30;20.40;;;;;;;;;;5008660;28;20207;-70
2021/11/14 09:22:28;;;;;;;33.87;21.43;;;;;;;;;;5009519;28;20249;-70
2021/11/14 09:24:53;;;;;;;33.37;20.67;;;;;;;;;;5007980;28;20644;-70
2021/11/14 09:27:18;;;;;;;32.90;21.50;;;;;;;;;;4991292;28;20174;-70
2021/11/14 09:29:43;;;;;;;35.67;20.42;;;;;;;;;;5009809;28;20220;-69
2021/11/14 09:32:09;;;;;;;39.57;21.93;;;;;;;;;;5008251;28;20194;-70
2021/11/14 09:34:34;;;;;;;31.80;19.17;;;;;;;;;;5009449;28;20439;-69
2021/11/14 09:36:59;;;;;;;35.83;21.30;;;;;;;;;;5009210;28;20184;-72
2021/11/14 09:39:25;;;;;;;33.97;22.00;;;;;;;;;;4990096;28;20215;-72
2021/11/14 09:41:52;;;;;;;34.57;20.43;;;;;;;;;;5007264;28;20650;-70
2021/11/14 09:44:19;;;;;;;35.87;22.13;;;;;;;;;;5008469;28;20717;-69
2021/11/14 09:46:45;;;;;;;31.93;19.40;;;;;;;;;;4995129;28;20182;-70
2021/11/14 09:49:11;;;;;;;34.97;21.30;;;;;;;;;;5005744;28;20194;-69
2021/11/14 09:51:36;;;;;;;30.73;19.50;;;;;;;;;;5009603;28;20218;-68
2021/11/14 09:54:02;;;;;;;32.20;19.73;;;;;;;;;;5007112;28;20186;-70
2021/11/14 09:56:27;;;;;;;30.93;18.67;;;;;;;;;;5008742;28;20185;-70
2021/11/14 09:58:52;;;;;;;32.47;21.00;;;;;;;;;;5010890;28;20201;-71
2021/11/14 10:01:17;;;;;;;29.23;19.63;;;;;;;;;;5007573;28;20298;-71
2021/11/14 10:03:45;;;;;;;33.47;20.07;;;;;;;;;;5007345;28;21756;-70
2021/11/14 10:06:10;;;;;;;32.03;20.33;;;;;;;;;;5008403;28;20256;-69
2021/11/14 10:08:42;;;;;;;33.57;18.47;;;;;;;;;;5008161;28;20191;-69
2021/11/14 10:11:07;;;;;;;32.40;20.38;;;;;;;;;;5008585;28;20217;-68
2021/11/14 10:13:34;;;;;;;32.70;20.70;;;;;;;;;;5008241;28;21073;-70
2021/11/14 10:16:09;;;;;;;31.65;19.67;;;;;;;;;;5010864;28;20707;-70
2021/11/14 10:18:35;;;;;;;29.80;19.27;;;;;;;;;;5008771;28;20293;-69
2021/11/14 10:21:02;;;;;;;32.38;19.52;;;;;;;;;;5007047;28;20178;-70
2021/11/14 10:23:28;;;;;;;27.13;17.75;;;;;;;;;;5008696;28;20193;-71
2021/11/14 10:25:55;;;;;;;29.70;19.55;;;;;;;;;;5008723;28;20266;-70
2021/11/14 10:28:21;;;;;;;28.73;18.35;;;;;;;;;;5019445;28;20257;-70
2021/11/14 10:30:47;;;;;;;31.50;20.27;;;;;;;;;;5030720;28;20337;-71
2021/11/14 10:33:15;;;;;;;27.58;18.60;;;;;;;;;;5027407;28;20183;-70
2021/11/14 10:35:42;;;;;;;32.40;19.15;;;;;;;;;;5025686;28;20201;-68
2021/11/14 10:38:09;;;;;;;28.52;18.00;;;;;;;;;;4990775;28;20221;-69
2021/11/14 10:40:39;;;;;;;26.30;17.48;;;;;;;;;;5009973;28;20194;-69
2021/11/14 10:43:05;;;;;;;29.37;19.10;;;;;;;;;;5009274;28;20574;-70
2021/11/14 10:45:33;;;;;;;27.50;18.45;;;;;;;;;;5012196;28;20198;-70
2021/11/14 10:47:59;;;;;;;28.88;18.52;;;;;;;;;;5014289;28;20194;-71
2021/11/14 10:50:31;;;;;;;21.75;15.98;;;;;;;;;;5012159;28;20797;-70
2021/11/14 10:52:57;;;;;;;31.33;19.13;;;;;;;;;;5000332;28;20210;-69
2021/11/14 10:55:23;;;;;;;28.55;17.30;;;;;;;;;;5015306;28;20800;-71
2021/11/14 10:57:49;;;;;;;27.35;18.50;;;;;;;;;;5012705;28;20211;-70
2021/11/14 11:00:15;;;;;;;24.75;18.00;;;;;;;;;;5012412;28;20206;-72
2021/11/14 11:02:44;;;;;;;30.33;18.55;;;;;;;;;;5010111;28;20297;-70
2021/11/14 11:05:15;;;;;;;27.75;17.90;;;;;;;;;;5011916;28;20196;-71
2021/11/14 11:07:42;;;;;;;25.15;17.35;;;;;;;;;;5010375;28;20183;-68
2021/11/14 11:10:07;;;;;;;25.60;16.92;;;;;;;;;;4995705;28;20185;-70
2021/11/14 11:12:34;;;;;;;27.50;18.40;;;;;;;;;;5014225;28;20202;-70
2021/11/14 11:15:02;;;;;;;26.95;16.98;;;;;;;;;;5013746;28;20186;-70
2021/11/14 11:17:28;;;;;;;26.70;16.23;;;;;;;;;;5013285;28;20213;-70
2021/11/14 11:20:06;;;;;;;24.50;16.08;;;;;;;;;;5010661;28;20208;-69
2021/11/14 11:22:32;;;;;;;25.35;17.38;;;;;;;;;;5013588;28;20260;-70
2021/11/14 11:24:57;;;;;;;25.17;16.15;;;;;;;;;;5012352;28;20712;-69
2021/11/14 11:27:22;;;;;;;23.73;16.83;;;;;;;;;;5015716;28;20712;-70
2021/11/14 11:29:48;;;;;;;23.02;15.73;;;;;;;;;;5011543;28;20229;-70
2021/11/14 11:32:14;;;;;;;24.20;15.65;;;;;;;;;;5012107;28;20629;-70
2021/11/14 11:34:42;;;;;;;24.80;16.40;;;;;;;;;;5009317;28;20179;-69
2021/11/14 11:37:07;;;;;;;26.30;16.90;;;;;;;;;;5011615;28;20640;-69
2021/11/14 11:39:32;;;;;;;24.63;16.58;;;;;;;;;;5012504;28;20217;-71
2021/11/14 11:41:59;;;;;;;25.08;16.10;;;;;;;;;;5012301;28;20311;-70
2021/11/14 11:44:25;;;;;;;24.25;16.05;;;;;;;;;;5002129;28;20201;-71
2021/11/14 11:46:51;;;;;;;22.77;15.40;;;;;;;;;;5012464;28;20179;-71
2021/11/14 11:49:21;;;;;;;23.20;16.52;;;;;;;;;;5011907;28;20187;-68
2021/11/14 11:51:50;;;;;;;25.60;14.80;;;;;;;;;;5014428;28;20252;-70
2021/11/14 11:54:17;;;;;;;26.17;16.73;;;;;;;;;;5011306;28;20178;-69
2021/11/14 11:57:02;;;;;;;25.10;16.08;;;;;;;;;;5012258;28;20190;-70
2021/11/14 11:59:41;;;;;;;24.67;15.70;;;;;;;;;;5010386;28;20233;-69
2021/11/14 12:02:09;;;;;;;25.13;17.33;;;;;;;;;;4991663;28;20198;-70
2021/11/14 12:04:42;;;;;;;20.98;14.45;;;;;;;;;;4990646;28;20186;-69
2021/11/14 12:07:15;;;;;;;23.33;14.98;;;;;;;;;;5010798;28;20554;-69
2021/11/14 12:09:51;;;;;;;22.45;16.05;;;;;;;;;;5012074;28;20186;-71
2021/11/14 12:12:24;;;;;;;25.02;15.93;;;;;;;;;;5011020;28;20202;-70
2021/11/14 12:15:12;;;;;;;22.02;15.23;;;;;;;;;;5009871;28;20179;-70
2021/11/14 12:18:01;;;;;;;21.17;14.52;;;;;;;;;;5016724;28;20648;-70
2021/11/14 12:20:26;;;;;;;23.33;15.55;;;;;;;;;;4999411;28;20202;-69
2021/11/14 12:22:52;;;;;;;19.63;14.48;;;;;;;;;;4991100;28;20276;-69
2021/11/14 12:25:25;;;;;;;22.27;16.60;;;;;;;;;;5010712;28;20190;-69
2021/11/14 12:28:06;;;;;;;19.60;14.13;;;;;;;;;;5008421;28;20186;-69
2021/11/14 12:30:33;;;;;;;20.95;13.82;;;;;;;;;;5012236;28;20724;-68
2021/11/14 12:32:59;;;;;;;24.05;16.17;;;;;;;;;;5019087;28;20238;-71
2021/11/14 12:35:28;;;;;;;21.88;13.90;;;;;;;;;;5027726;28;20178;-71
2021/11/14 12:37:53;;;;;;;19.80;14.80;;;;;;;;;;5010835;28;20621;-71
2021/11/14 12:40:22;;;;;;;20.80;14.93;;;;;;;;;;5033464;28;20228;-71
2021/11/14 12:42:49;;;;;;;21.35;14.60;;;;;;;;;;5015089;28;20628;-69
2021/11/14 12:45:14;;;;;;;19.10;13.60;;;;;;;;;;5027195;28;20239;-70
2021/11/14 12:47:41;;;;;;;20.02;13.82;;;;;;;;;;5006667;28;20235;-71
2021/11/14 12:50:16;;;;;;;19.60;13.50;;;;;;;;;;5026911;28;20189;-70
2021/11/14 12:52:43;;;;;;;16.35;13.32;;;;;;;;;;5029273;28;20205;-70
2021/11/14 12:55:19;;;;;;;19.25;14.48;;;;;;;;;;5026327;28;20684;-71
2021/11/14 12:57:52;;;;;;;17.13;13.25;;;;;;;;;;5028927;28;20225;-70
2021/11/14 13:00:34;;;;;;;20.70;14.07;;;;;;;;;;5027572;28;20186;-71
2021/11/14 13:02:59;;;;;;;20.13;13.43;;;;;;;;;;5030340;28;20198;-70
2021/11/14 13:05:26;;;;;;;18.02;13.38;;;;;;;;;;5004251;28;20189;-70
2021/11/14 13:07:52;;;;;;;16.55;13.32;;;;;;;;;;5009143;28;20270;-70
2021/11/14 13:10:18;;;;;;;18.50;14.00;;;;;;;;;;5009409;28;20595;-70
2021/11/14 13:12:47;;;;;;;23.42;15.32;;;;;;;;;;5011168;28;20206;-71
2021/11/14 13:15:13;;;;;;;18.92;14.13;;;;;;;;;;5009524;28;20178;-71
2021/11/14 13:17:57;;;;;;;21.15;14.93;;;;;;;;;;5013189;28;20222;-70
2021/11/14 13:20:23;;;;;;;18.27;13.60;;;;;;;;;;5008434;28;20209;-71
2021/11/14 13:22:50;;;;;;;19.45;14.38;;;;;;;;;;4995381;28;20187;-70
2021/11/14 13:25:19;;;;;;;18.25;13.93;;;;;;;;;;5016654;28;20261;-70
2021/11/14 13:27:44;;;;;;;18.35;14.23;;;;;;;;;;4993009;28;21663;-70
2021/11/14 13:30:09;;;;;;;19.85;15.18;;;;;;;;;;5008411;28;20209;-69
2021/11/14 13:32:34;;;;;;;17.33;13.13;;;;;;;;;;5010966;28;20206;-71
2021/11/14 13:35:00;;;;;;;17.77;13.88;;;;;;;;;;5015244;28;20316;-71
2021/11/14 13:37:33;;;;;;;17.08;12.77;;;;;;;;;;5012531;28;20194;-71
2021/11/14 13:40:08;;;;;;;19.73;14.20;;;;;;;;;;5009764;28;20743;-69
2021/11/14 13:42:37;;;;;;;20.70;14.27;;;;;;;;;;5010773;28;20205;-69
2021/11/14 13:45:10;;;;;;;17.95;13.73;;;;;;;;;;5018028;28;20561;-71
2021/11/14 13:47:49;;;;;;;18.75;14.25;;;;;;;;;;5006892;28;20182;-70
2021/11/14 13:50:20;;;;;;;19.23;13.05;;;;;;;;;;5012806;28;20187;-71
2021/11/14 13:52:46;;;;;;;17.80;13.32;;;;;;;;;;5011849;28;20325;-70
2021/11/14 13:55:11;;;;;;;17.30;12.97;;;;;;;;;;5012009;28;20297;-71
2021/11/14 13:57:37;;;;;;;17.93;13.30;;;;;;;;;;5015698;28;20209;-70
2021/11/14 14:00:17;;;;;;;17.08;12.55;;;;;;;;;;5012048;28;20566;-71
2021/11/14 14:02:42;;;;;;;18.40;13.27;;;;;;;;;;4997273;28;20269;-73
2021/11/14 14:05:09;;;;;;;17.30;13.00;;;;;;;;;;5008235;28;20183;-70
2021/11/14 14:07:37;;;;;;;16.35;12.80;;;;;;;;;;5009486;28;20202;-69
2021/11/14 14:10:05;;;;;;;18.25;13.20;;;;;;;;;;5007916;28;20186;-71
2021/11/14 14:12:31;;;;;;;17.30;13.10;;;;;;;;;;5010498;28;20289;-71
2021/11/14 14:14:58;;;;;;;17.15;13.73;;;;;;;;;;5008772;28;20186;-71